createdAt,value
2023-05-15T00:00:44.786Z,91.638184
2023-05-15T00:01:53.563Z,91.638184
2023-05-15T00:03:02.261Z,91.8396
2023-05-15T00:04:10.884Z,91.638184
2023-05-15T00:05:19.572Z,91.8396
2023-05-15T00:06:29.209Z,91.638184
2023-05-15T00:07:37.895Z,91.73584
2023-05-15T00:08:47.553Z,91.8396
2023-05-15T00:09:56.200Z,91.8396
2023-05-15T00:11:05.899Z,91.534424
2023-05-15T00:12:15.566Z,91.8396
2023-05-15T00:13:25.185Z,92.089844
2023-05-15T00:14:33.832Z,91.943359
2023-05-15T00:15:43.555Z,91.943359
2023-05-15T00:16:52.239Z,91.986084
2023-05-15T00:18:01.971Z,92.1875
2023-05-15T00:19:11.611Z,92.089844
2023-05-15T00:20:20.266Z,91.73584
2023-05-15T00:21:29.975Z,91.638184
2023-05-15T00:22:39.594Z,91.8396
2023-05-15T00:23:49.240Z,91.8396
2023-05-15T00:24:57.929Z,91.638184
2023-05-15T00:26:06.584Z,91.73584
2023-05-15T00:27:16.214Z,91.73584
2023-05-15T00:28:24.862Z,91.638184
2023-05-15T00:29:32.509Z,91.8396
2023-05-15T00:30:42.204Z,91.680908
2023-05-15T00:31:51.972Z,91.986084
2023-05-15T00:33:02.555Z,91.784668
2023-05-15T00:34:11.202Z,91.882324
2023-05-15T00:35:19.940Z,91.882324
2023-05-15T00:36:28.610Z,91.534424
2023-05-15T00:37:38.269Z,91.479492
2023-05-15T00:38:46.896Z,91.73584
2023-05-15T00:39:56.618Z,91.430664
2023-05-15T00:41:06.308Z,91.430664
2023-05-15T00:42:15.958Z,91.577148
2023-05-15T00:43:25.604Z,91.375732
2023-05-15T00:44:35.280Z,91.174316
2023-05-15T00:45:44.934Z,91.070557
2023-05-15T00:46:53.610Z,91.375732
2023-05-15T00:48:03.276Z,91.418457
2023-05-15T00:49:12.938Z,91.827393
2023-05-15T00:50:22.605Z,92.437744
2023-05-15T00:51:32.256Z,92.132568
2023-05-15T00:52:41.991Z,92.437744
2023-05-15T00:53:51.673Z,92.437744
2023-05-15T00:55:00.343Z,91.967773
2023-05-15T00:56:09.055Z,92.5354
2023-05-15T00:57:18.662Z,92.230225
2023-05-15T00:58:27.369Z,91.925049
2023-05-15T00:59:37.032Z,91.723633
2023-05-15T01:00:46.725Z,92.132568
2023-05-15T01:01:56.408Z,91.784668
2023-05-15T01:03:06.378Z,91.479492
2023-05-15T01:04:15.709Z,91.479492
2023-05-15T01:05:24.521Z,91.479492
2023-05-15T01:06:34.072Z,91.479492
2023-05-15T01:07:41.743Z,91.174316
2023-05-15T01:08:50.440Z,90.966797
2023-05-15T01:09:59.067Z,91.479492
2023-05-15T01:11:07.719Z,91.271973
2023-05-15T01:12:17.447Z,91.271973
2023-05-15T01:13:27.094Z,91.271973
2023-05-15T01:14:35.726Z,91.375732
2023-05-15T01:15:45.396Z,91.375732
2023-05-15T01:16:55.112Z,91.577148
2023-05-15T01:18:02.790Z,91.522217
2023-05-15T01:19:12.434Z,91.723633
2023-05-15T01:20:22.065Z,91.827393
2023-05-15T01:21:31.785Z,92.132568
2023-05-15T01:22:40.493Z,92.333984
2023-05-15T01:23:49.134Z,92.376709
2023-05-15T01:24:58.818Z,93.292236
2023-05-15T01:26:07.476Z,92.889404
2023-05-15T01:27:16.121Z,92.63916
2023-05-15T01:28:25.772Z,92.5354
2023-05-15T01:29:35.408Z,92.437744
2023-05-15T01:30:44.103Z,92.230225
2023-05-15T01:31:52.825Z,92.437744
2023-05-15T01:33:02.412Z,92.089844
2023-05-15T01:34:12.039Z,91.882324
2023-05-15T01:35:19.718Z,91.784668
2023-05-15T01:36:28.387Z,92.028809
2023-05-15T01:37:38.100Z,91.680908
2023-05-15T01:38:47.751Z,91.882324
2023-05-15T01:39:56.448Z,91.680908
2023-05-15T01:41:05.133Z,91.882324
2023-05-15T01:42:13.769Z,91.882324
2023-05-15T01:43:23.416Z,91.827393
2023-05-15T01:44:32.118Z,92.333984
2023-05-15T01:45:39.812Z,92.089844
2023-05-15T01:46:49.488Z,91.882324
2023-05-15T01:47:59.149Z,91.986084
2023-05-15T01:49:08.826Z,92.089844
2023-05-15T01:50:17.465Z,91.986084
2023-05-15T01:51:27.097Z,92.028809
2023-05-15T01:52:36.856Z,91.784668
2023-05-15T01:53:46.591Z,91.925049
2023-05-15T01:54:55.298Z,91.925049
2023-05-15T01:56:04.940Z,91.882324
2023-05-15T01:57:13.616Z,91.680908
2023-05-15T01:58:22.255Z,91.271973
2023-05-15T01:59:30.904Z,91.925049
2023-05-15T02:00:39.543Z,92.132568
2023-05-15T02:01:49.253Z,92.028809
2023-05-15T02:02:56.940Z,92.5354
2023-05-15T02:04:06.633Z,92.333984
2023-05-15T02:05:16.243Z,92.230225
2023-05-15T02:06:25.948Z,91.925049
2023-05-15T02:07:35.568Z,92.132568
2023-05-15T02:08:45.266Z,92.132568
2023-05-15T02:09:53.910Z,92.028809
2023-05-15T02:11:03.611Z,92.132568
2023-05-15T02:12:11.240Z,92.028809
2023-05-15T02:13:19.953Z,92.028809
2023-05-15T02:14:29.589Z,91.522217
2023-05-15T02:15:39.267Z,91.619873
2023-05-15T02:16:47.965Z,91.925049
2023-05-15T02:17:56.716Z,91.577148
2023-05-15T02:19:06.322Z,91.375732
2023-05-15T02:20:15.944Z,91.070557
2023-05-15T02:21:24.586Z,91.314697
2023-05-15T02:22:32.239Z,92.028809
2023-05-15T02:23:41.921Z,91.827393
2023-05-15T02:24:51.570Z,91.314697
2023-05-15T02:26:01.234Z,92.071533
2023-05-15T02:27:11.192Z,92.333984
2023-05-15T02:28:20.843Z,92.5354
2023-05-15T02:29:30.533Z,92.437744
2023-05-15T02:30:40.159Z,92.132568
2023-05-15T02:31:49.851Z,91.827393
2023-05-15T02:32:59.512Z,92.028809
2023-05-15T02:34:08.135Z,91.522217
2023-05-15T02:35:16.772Z,91.619873
2023-05-15T02:36:26.770Z,91.925049
2023-05-15T02:37:36.491Z,91.925049
2023-05-15T02:38:46.149Z,92.230225
2023-05-15T02:39:54.797Z,91.827393
2023-05-15T02:41:02.488Z,92.437744
2023-05-15T02:42:12.227Z,92.272949
2023-05-15T02:43:21.874Z,92.5354
2023-05-15T02:44:30.515Z,91.827393
2023-05-15T02:45:39.266Z,93.292236
2023-05-15T02:46:47.848Z,92.987061
2023-05-15T02:47:57.528Z,92.480469
2023-05-15T02:49:05.139Z,92.828369
2023-05-15T02:50:14.878Z,93.54248
2023-05-15T02:51:23.543Z,93.54248
2023-05-15T02:52:33.205Z,93.292236
2023-05-15T02:53:42.977Z,93.597412
2023-05-15T02:54:52.625Z,92.889404
2023-05-15T02:56:01.368Z,92.987061
2023-05-15T02:57:10.003Z,92.889404
2023-05-15T02:58:19.658Z,92.987061
2023-05-15T02:59:29.359Z,92.681885
2023-05-15T03:00:39.048Z,92.889404
2023-05-15T03:01:48.802Z,92.480469
2023-05-15T03:02:58.437Z,92.230225
2023-05-15T03:04:08.050Z,92.333984
2023-05-15T03:05:16.749Z,92.578125
2023-05-15T03:06:25.387Z,92.5354
2023-05-15T03:07:35.049Z,92.333984
2023-05-15T03:08:44.703Z,92.028809
2023-05-15T03:09:53.380Z,92.175293
2023-05-15T03:11:02.076Z,92.681885
2023-05-15T03:12:11.697Z,92.437744
2023-05-15T03:13:21.399Z,91.827393
2023-05-15T03:14:31.074Z,92.480469
2023-05-15T03:15:40.721Z,92.785645
2023-05-15T03:16:50.414Z,92.376709
2023-05-15T03:18:00.122Z,92.681885
2023-05-15T03:19:09.848Z,92.071533
2023-05-15T03:20:18.427Z,92.230225
2023-05-15T03:21:28.109Z,91.870117
2023-05-15T03:22:36.857Z,92.175293
2023-05-15T03:23:46.536Z,92.175293
2023-05-15T03:24:54.186Z,92.480469
2023-05-15T03:26:03.874Z,92.578125
2023-05-15T03:27:13.525Z,92.028809
2023-05-15T03:28:21.207Z,92.175293
2023-05-15T03:29:29.849Z,92.480469
2023-05-15T03:30:39.490Z,91.967773
2023-05-15T03:31:48.247Z,91.967773
2023-05-15T03:32:57.879Z,91.870117
2023-05-15T03:34:07.522Z,91.967773
2023-05-15T03:35:17.169Z,91.522217
2023-05-15T03:36:26.873Z,91.662598
2023-05-15T03:37:35.548Z,91.662598
2023-05-15T03:38:44.212Z,91.870117
2023-05-15T03:39:53.879Z,91.967773
2023-05-15T03:41:02.519Z,91.619873
2023-05-15T03:42:11.186Z,91.314697
2023-05-15T03:43:20.849Z,91.461182
2023-05-15T03:44:30.496Z,91.870117
2023-05-15T03:45:40.147Z,91.827393
2023-05-15T03:46:48.850Z,91.314697
2023-05-15T03:47:58.488Z,90.704346
2023-05-15T03:49:08.127Z,91.827393
2023-05-15T03:50:16.805Z,91.314697
2023-05-15T03:51:26.572Z,91.314697
2023-05-15T03:52:35.206Z,91.925049
2023-05-15T03:53:44.865Z,91.418457
2023-05-15T03:54:54.532Z,91.009521
2023-05-15T03:56:04.220Z,92.175293
2023-05-15T03:57:13.886Z,91.870117
2023-05-15T03:58:23.533Z,92.578125
2023-05-15T03:59:33.194Z,92.480469
2023-05-15T04:00:42.880Z,92.480469
2023-05-15T04:02:03.992Z,92.333984
2023-05-15T04:03:01.250Z,92.175293
2023-05-15T04:04:10.847Z,92.132568
2023-05-15T04:05:20.556Z,92.272949
2023-05-15T04:06:29.188Z,92.132568
2023-05-15T04:07:38.908Z,91.723633
2023-05-15T04:08:48.548Z,91.314697
2023-05-15T04:09:58.229Z,91.925049
2023-05-15T04:11:06.880Z,92.230225
2023-05-15T04:12:16.553Z,91.925049
2023-05-15T04:13:25.202Z,92.028809
2023-05-15T04:14:33.882Z,91.723633
2023-05-15T04:15:43.548Z,92.028809
2023-05-15T04:16:53.213Z,91.784668
2023-05-15T04:18:02.970Z,91.418457
2023-05-15T04:19:11.727Z,91.827393
2023-05-15T04:20:21.444Z,91.577148
2023-05-15T04:21:30.103Z,91.577148
2023-05-15T04:22:39.739Z,91.375732
2023-05-15T04:23:48.474Z,91.827393
2023-05-15T04:24:57.164Z,91.925049
2023-05-15T04:26:06.851Z,92.437744
2023-05-15T04:27:15.507Z,92.132568
2023-05-15T04:28:25.209Z,92.230225
2023-05-15T04:29:34.887Z,92.230225
2023-05-15T04:30:43.551Z,92.230225
2023-05-15T04:31:52.249Z,92.333984
2023-05-15T04:33:00.926Z,92.333984
2023-05-15T04:34:08.578Z,92.272949
2023-05-15T04:35:18.255Z,92.578125
2023-05-15T04:36:27.920Z,93.19458
2023-05-15T04:37:37.673Z,93.292236
2023-05-15T04:38:47.349Z,92.785645
2023-05-15T04:39:57.098Z,93.597412
2023-05-15T04:41:06.727Z,92.889404
2023-05-15T04:42:15.388Z,93.048096
2023-05-15T04:43:24.083Z,92.63916
2023-05-15T04:44:33.743Z,92.5354
2023-05-15T04:45:43.429Z,92.29126
2023-05-15T04:46:53.101Z,92.1875
2023-05-15T04:48:01.865Z,92.346191
2023-05-15T04:49:11.499Z,91.8396
2023-05-15T04:50:20.489Z,91.595459
2023-05-15T04:51:30.163Z,90.618896
2023-05-15T04:52:39.940Z,90.924072
2023-05-15T04:53:49.550Z,91.430664
2023-05-15T04:54:58.192Z,91.131592
2023-05-15T04:56:07.879Z,91.027832
2023-05-15T04:57:16.607Z,90.924072
2023-05-15T04:58:26.303Z,91.229248
2023-05-15T04:59:35.965Z,90.722656
2023-05-15T05:00:45.627Z,91.027832
2023-05-15T05:01:55.362Z,91.229248
2023-05-15T05:03:05.100Z,90.52124
2023-05-15T05:04:14.775Z,90.679932
2023-05-15T05:05:24.517Z,90.679932
2023-05-15T05:06:33.059Z,90.374756
2023-05-15T05:07:41.819Z,90.228271
2023-05-15T05:08:51.388Z,89.923096
2023-05-15T05:10:01.059Z,89.825439
2023-05-15T05:11:09.793Z,89.825439
2023-05-15T05:12:17.461Z,89.477539
2023-05-15T05:13:25.142Z,89.276123
2023-05-15T05:14:34.803Z,89.068604
2023-05-15T05:15:43.519Z,89.477539
2023-05-15T05:16:53.182Z,88.970947
2023-05-15T05:18:01.915Z,89.068604
2023-05-15T05:19:10.603Z,89.068604
2023-05-15T05:20:20.266Z,88.970947
2023-05-15T05:21:28.956Z,88.970947
2023-05-15T05:22:38.658Z,89.416504
2023-05-15T05:23:48.386Z,89.61792
2023-05-15T05:24:58.069Z,90.026855
2023-05-15T05:26:06.741Z,89.923096
2023-05-15T05:27:15.446Z,90.130615
2023-05-15T05:28:25.141Z,90.289307
2023-05-15T05:29:34.813Z,89.678955
2023-05-15T05:30:42.551Z,89.782715
2023-05-15T05:31:51.348Z,89.880371
2023-05-15T05:33:00.959Z,89.782715
2023-05-15T05:34:10.659Z,89.068604
2023-05-15T05:35:20.349Z,89.416504
2023-05-15T05:36:29.055Z,89.72168
2023-05-15T05:37:39.572Z,90.130615
2023-05-15T05:38:47.468Z,90.130615
2023-05-15T05:39:56.175Z,90.026855
2023-05-15T05:41:04.824Z,90.435791
2023-05-15T05:42:14.483Z,90.026855
2023-05-15T05:43:23.256Z,90.332031
2023-05-15T05:44:31.983Z,90.026855
2023-05-15T05:45:41.655Z,90.130615
2023-05-15T05:46:51.389Z,90.026855
2023-05-15T05:48:01.135Z,90.026855
2023-05-15T05:49:08.762Z,90.026855
2023-05-15T05:50:17.448Z,90.185547
2023-05-15T05:51:27.120Z,89.782715
2023-05-15T05:52:35.845Z,89.477539
2023-05-15T05:53:45.513Z,89.678955
2023-05-15T05:54:54.180Z,89.984131
2023-05-15T05:56:02.888Z,89.782715
2023-05-15T05:57:12.560Z,89.678955
2023-05-15T05:58:25.333Z,89.782715
2023-05-15T05:59:29.921Z,88.970947
2023-05-15T06:00:39.657Z,88.763428
2023-05-15T06:01:48.380Z,89.172363
2023-05-15T06:02:58.179Z,88.867188
2023-05-15T06:04:07.831Z,88.562012
2023-05-15T06:05:16.401Z,88.15918
2023-05-15T06:06:26.088Z,88.763428
2023-05-15T06:07:34.787Z,88.40332
2023-05-15T06:08:43.461Z,88.909912
2023-05-15T06:09:52.142Z,89.111328
2023-05-15T06:11:00.772Z,88.708496
2023-05-15T06:12:10.535Z,88.708496
2023-05-15T06:13:20.224Z,88.909912
2023-05-15T06:14:29.002Z,89.013672
2023-05-15T06:15:38.668Z,89.215088
2023-05-15T06:16:47.472Z,88.867188
2023-05-15T06:17:56.120Z,88.665771
2023-05-15T06:19:05.783Z,88.098145
2023-05-15T06:20:15.414Z,88.665771
2023-05-15T06:21:25.109Z,88.763428
2023-05-15T06:22:34.759Z,87.890625
2023-05-15T06:23:44.444Z,88.708496
2023-05-15T06:24:54.180Z,88.763428
2023-05-15T06:26:02.861Z,88.15918
2023-05-15T06:27:12.531Z,87.286377
2023-05-15T06:28:22.236Z,88.098145
2023-05-15T06:29:30.855Z,88.256836
2023-05-15T06:30:39.582Z,88.15918
2023-05-15T06:31:48.250Z,88.256836
2023-05-15T06:32:57.959Z,87.750244
2023-05-15T06:34:07.593Z,87.609863
2023-05-15T06:35:17.390Z,87.402344
2023-05-15T06:36:26.084Z,87.70752
2023-05-15T06:37:35.759Z,87.097168
2023-05-15T06:38:44.423Z,87.567139
2023-05-15T06:39:54.214Z,86.651611
2023-05-15T06:41:02.938Z,86.346436
2023-05-15T06:42:12.655Z,85.943604
2023-05-15T06:43:22.384Z,86.38916
2023-05-15T06:44:32.094Z,86.14502
2023-05-15T06:45:40.741Z,85.943604
2023-05-15T06:46:51.468Z,85.839844
2023-05-15T06:48:01.946Z,85.192871
2023-05-15T06:49:10.793Z,84.991455
2023-05-15T06:50:19.480Z,84.625244
2023-05-15T06:51:28.227Z,85.235596
2023-05-15T06:52:37.909Z,85.437012
2023-05-15T06:53:47.632Z,85.882568
2023-05-15T06:54:57.346Z,84.93042
2023-05-15T06:56:05.007Z,85.131836
2023-05-15T06:57:12.656Z,85.742188
2023-05-15T06:58:22.329Z,85.498047
2023-05-15T06:59:32.042Z,84.82666
2023-05-15T07:00:41.730Z,85.943604
2023-05-15T07:01:51.422Z,86.004639
2023-05-15T07:03:00.152Z,84.625244
2023-05-15T07:04:09.912Z,85.742188
2023-05-15T07:05:21.075Z,86.248779
2023-05-15T07:06:30.736Z,85.638428
2023-05-15T07:07:40.419Z,85.900879
2023-05-15T07:08:50.210Z,85.394287
2023-05-15T07:09:58.929Z,85.089111
2023-05-15T07:11:07.589Z,84.216309
2023-05-15T07:12:17.258Z,86.083984
2023-05-15T07:13:27.040Z,86.022949
2023-05-15T07:14:34.697Z,85.980225
2023-05-15T07:15:42.390Z,85.839844
2023-05-15T07:16:52.139Z,85.131836
2023-05-15T07:18:00.964Z,85.235596
2023-05-15T07:19:09.511Z,84.93042
2023-05-15T07:20:18.104Z,85.028076
2023-05-15T07:21:26.784Z,85.742188
2023-05-15T07:22:41.697Z,84.783936
2023-05-15T07:23:47.143Z,84.686279
2023-05-15T07:24:54.788Z,83.874512
2023-05-15T07:26:04.591Z,84.277344
2023-05-15T07:27:15.300Z,83.306885
2023-05-15T07:28:24.003Z,84.216309
2023-05-15T07:29:33.693Z,84.179688
2023-05-15T07:30:43.364Z,83.831787
2023-05-15T07:31:53.220Z,83.898926
2023-05-15T07:33:00.913Z,83.758545
2023-05-15T07:34:08.494Z,82.03125
2023-05-15T07:35:18.214Z,81.591797
2023-05-15T07:36:26.925Z,81.182861
2023-05-15T07:37:36.622Z,80.474854
2023-05-15T07:38:45.358Z,81.005859
2023-05-15T07:39:55.101Z,80.462646
2023-05-15T07:41:03.776Z,78.747559
2023-05-15T07:42:12.581Z,79.455566
2023-05-15T07:43:20.203Z,79.858398
2023-05-15T07:44:29.848Z,78.503418
2023-05-15T07:45:38.590Z,77.294922
2023-05-15T07:46:48.248Z,78.845215
2023-05-15T07:47:56.983Z,77.130127
2023-05-15T07:49:05.539Z,78.039551
2023-05-15T07:50:15.223Z,77.636719
2023-05-15T07:51:24.896Z,77.429199
2023-05-15T07:52:34.552Z,76.623535
2023-05-15T07:53:44.198Z,77.496338
2023-05-15T07:54:52.928Z,76.550293
2023-05-15T07:56:01.636Z,75.982666
2023-05-15T07:57:11.290Z,76.690674
2023-05-15T07:58:19.981Z,75.982666
2023-05-15T07:59:29.731Z,76.751709
2023-05-15T08:00:37.365Z,76.080322
2023-05-15T08:01:46.031Z,76.519775
2023-05-15T08:02:55.734Z,76.586914
2023-05-15T08:04:04.594Z,76.184082
2023-05-15T08:05:14.317Z,75.67749
2023-05-15T08:06:23.801Z,76.281738
2023-05-15T08:07:32.513Z,76.45874
2023-05-15T08:08:42.190Z,77.874756
2023-05-15T08:09:51.877Z,77.838135
2023-05-15T08:10:59.558Z,76.855469
2023-05-15T08:12:09.245Z,76.617432
2023-05-15T08:13:18.960Z,76.177979
2023-05-15T08:14:28.659Z,75.43335
2023-05-15T08:15:38.433Z,74.389648
2023-05-15T08:16:47.009Z,74.291992
2023-05-15T08:17:56.749Z,73.010254
2023-05-15T08:19:06.430Z,73.577881
2023-05-15T08:20:16.121Z,71.600342
2023-05-15T08:21:25.832Z,69.958496
2023-05-15T08:22:35.510Z,68.078613
2023-05-15T08:23:44.193Z,69.354248
2023-05-15T08:24:53.876Z,70.758057
2023-05-15T08:26:02.557Z,72.003174
2023-05-15T08:27:12.225Z,72.070312
2023-05-15T08:28:19.924Z,71.19751
2023-05-15T08:29:27.590Z,70.526123
2023-05-15T08:30:37.276Z,68.548584
2023-05-15T08:31:47.073Z,68.182373
2023-05-15T08:32:56.769Z,68.450928
2023-05-15T08:34:05.395Z,66.436768
2023-05-15T08:35:15.079Z,66.638184
2023-05-15T08:36:24.807Z,67.443848
2023-05-15T08:37:33.614Z,67.474365
2023-05-15T08:38:42.218Z,67.779541
2023-05-15T08:39:52.027Z,67.944336
2023-05-15T08:41:01.702Z,67.773438
2023-05-15T08:42:10.414Z,68.981934
2023-05-15T08:43:20.068Z,69.720459
2023-05-15T08:44:28.752Z,69.116211
2023-05-15T08:45:37.468Z,69.689941
2023-05-15T08:46:47.213Z,70.495605
2023-05-15T08:47:57.039Z,69.921875
2023-05-15T08:49:05.652Z,68.884277
2023-05-15T08:50:15.285Z,68.249512
2023-05-15T08:51:24.997Z,69.189453
2023-05-15T08:52:34.702Z,66.473389
2023-05-15T08:53:44.387Z,67.077637
2023-05-15T08:54:54.032Z,65.9729
2023-05-15T08:56:03.774Z,65.942383
2023-05-15T08:57:13.432Z,66.113281
2023-05-15T08:58:21.153Z,65.948486
2023-05-15T08:59:29.865Z,64.483643
2023-05-15T09:00:39.608Z,61.883545
2023-05-15T09:01:49.359Z,62.438965
2023-05-15T09:02:59.027Z,63.171387
2023-05-15T09:04:07.764Z,64.074707
2023-05-15T09:05:17.385Z,63.775635
2023-05-15T09:06:27.050Z,64.208984
2023-05-15T09:07:36.713Z,66.314697
2023-05-15T09:08:46.416Z,68.121338
2023-05-15T09:09:56.178Z,65.771484
2023-05-15T09:11:05.836Z,66.97998
2023-05-15T09:12:14.501Z,66.906738
2023-05-15T09:13:23.164Z,67.547607
2023-05-15T09:14:31.888Z,68.780518
2023-05-15T09:15:41.535Z,69.287109
2023-05-15T09:16:50.229Z,70.697021
2023-05-15T09:17:59.919Z,70.428467
2023-05-15T09:19:09.622Z,70.629883
2023-05-15T09:20:19.341Z,70.727539
2023-05-15T09:21:27.994Z,71.063232
2023-05-15T09:22:37.649Z,70.159912
2023-05-15T09:23:47.335Z,72.137451
2023-05-15T09:24:57.013Z,70.526123
2023-05-15T09:26:05.697Z,69.519043
2023-05-15T09:27:15.350Z,69.116211
2023-05-15T09:28:25.047Z,68.884277
2023-05-15T09:29:34.712Z,68.280029
2023-05-15T09:30:43.428Z,67.547607
2023-05-15T09:31:53.102Z,68.31665
2023-05-15T09:33:01.769Z,67.712402
2023-05-15T09:34:11.433Z,67.382812
2023-05-15T09:35:20.113Z,66.949463
2023-05-15T09:36:28.775Z,65.380859
2023-05-15T09:37:38.507Z,63.977051
2023-05-15T09:38:47.205Z,64.343262
2023-05-15T09:39:56.880Z,63.140869
2023-05-15T09:41:06.562Z,64.117432
2023-05-15T09:42:16.283Z,63.543701
2023-05-15T09:43:25.912Z,63.000488
2023-05-15T09:44:34.569Z,63.763428
2023-05-15T09:45:43.306Z,65.203857
2023-05-15T09:46:53.003Z,65.838623
2023-05-15T09:48:01.696Z,65.869141
2023-05-15T09:49:10.277Z,65.734863
2023-05-15T09:50:18.941Z,65.301514
2023-05-15T09:51:28.637Z,66.473389
2023-05-15T09:52:38.322Z,67.614746
2023-05-15T09:53:46.986Z,66.711426
2023-05-15T09:54:55.634Z,65.875244
2023-05-15T09:56:05.289Z,65.240479
2023-05-15T09:57:15.040Z,65.307617
2023-05-15T09:58:23.809Z,63.842773
2023-05-15T09:59:33.383Z,64.178467
2023-05-15T10:00:47.374Z,63.104248
2023-05-15T10:01:53.806Z,63.40332
2023-05-15T10:03:02.504Z,63.104248
2023-05-15T10:04:11.096Z,63.171387
2023-05-15T10:05:26.038Z,63.244629
2023-05-15T10:06:31.473Z,61.981201
2023-05-15T10:07:41.142Z,60.723877
2023-05-15T10:08:50.792Z,59.118652
2023-05-15T10:09:59.464Z,60.394287
2023-05-15T10:11:09.184Z,60.461426
2023-05-15T10:12:17.871Z,58.135986
2023-05-15T10:13:27.574Z,57.336426
2023-05-15T10:14:37.223Z,58.190918
2023-05-15T10:15:46.936Z,59.320068
2023-05-15T10:16:56.568Z,59.094238
2023-05-15T10:18:05.276Z,59.692383
2023-05-15T10:19:14.932Z,58.966064
2023-05-15T10:20:24.758Z,58.709717
2023-05-15T10:21:34.282Z,58.483887
2023-05-15T10:22:43.945Z,59.777832
2023-05-15T10:23:53.628Z,58.178711
2023-05-15T10:25:03.311Z,58.953857
2023-05-15T10:26:11.994Z,58.154297
2023-05-15T10:27:19.676Z,57.757568
2023-05-15T10:28:29.392Z,57.385254
2023-05-15T10:29:39.181Z,57.513428
2023-05-15T10:30:48.821Z,58.410645
2023-05-15T10:31:57.523Z,59.338379
2023-05-15T10:33:07.153Z,61.273193
2023-05-15T10:34:16.794Z,60.107422
2023-05-15T10:35:26.530Z,63.702393
2023-05-15T10:36:36.222Z,62.670898
2023-05-15T10:37:44.900Z,58.978271
2023-05-15T10:38:54.567Z,60.174561
2023-05-15T10:40:03.255Z,58.282471
2023-05-15T10:41:17.460Z,60.675049
2023-05-15T10:42:23.598Z,58.752441
2023-05-15T10:43:31.243Z,57.226562
2023-05-15T10:44:41.084Z,59.320068
2023-05-15T10:45:50.715Z,58.270264
2023-05-15T10:46:59.400Z,58.837891
2023-05-15T10:48:09.137Z,57.58667
2023-05-15T10:49:17.786Z,55.499268
2023-05-15T10:50:27.606Z,57.562256
2023-05-15T10:51:36.213Z,56.542969
2023-05-15T10:52:45.812Z,55.645752
2023-05-15T10:53:55.551Z,54.180908
2023-05-15T10:55:05.198Z,57.092285
2023-05-15T10:56:13.979Z,58.111572
2023-05-15T10:57:22.577Z,57.049561
2023-05-15T10:58:32.248Z,57.672119
2023-05-15T10:59:42.935Z,57.897949
2023-05-15T11:00:51.591Z,60.546875
2023-05-15T11:01:59.204Z,60.736084
2023-05-15T11:03:08.945Z,65.625
2023-05-15T11:04:17.602Z,69.659424
2023-05-15T11:05:27.237Z,69.824219
2023-05-15T11:06:35.949Z,73.101807
2023-05-15T11:07:45.595Z,70.257568
2023-05-15T11:08:55.274Z,77.459717
2023-05-15T11:10:04.976Z,76.324463
2023-05-15T11:11:12.613Z,78.210449
2023-05-15T11:12:22.350Z,79.455566
2023-05-15T11:13:30.008Z,80.499268
2023-05-15T11:14:38.720Z,80.535889
2023-05-15T11:15:47.407Z,79.974365
2023-05-15T11:16:57.081Z,80.175781
2023-05-15T11:18:06.726Z,78.55835
2023-05-15T11:19:15.416Z,80.377197
2023-05-15T11:20:23.251Z,81.92749
2023-05-15T11:21:32.923Z,80.487061
2023-05-15T11:22:41.611Z,82.141113
2023-05-15T11:23:50.292Z,81.097412
2023-05-15T11:24:58.984Z,81.5979
2023-05-15T11:26:08.701Z,83.178711
2023-05-15T11:27:18.411Z,79.241943
2023-05-15T11:28:26.128Z,76.147461
2023-05-15T11:29:35.807Z,78.808594
2023-05-15T11:30:45.538Z,80.224609
2023-05-15T11:31:54.226Z,78.265381
2023-05-15T11:33:03.980Z,78.405762
2023-05-15T11:34:12.617Z,80.426025
2023-05-15T11:35:21.314Z,81.134033
2023-05-15T11:36:31.207Z,80.664062
2023-05-15T11:37:41.842Z,81.170654
2023-05-15T11:38:52.534Z,83.398438
2023-05-15T11:40:02.175Z,82.849121
2023-05-15T11:41:10.902Z,81.37207
2023-05-15T11:42:19.559Z,81.738281
2023-05-15T11:43:28.285Z,81.903076
2023-05-15T11:44:37.956Z,80.688477
2023-05-15T11:45:47.699Z,81.70166
2023-05-15T11:46:55.461Z,81.903076
2023-05-15T11:48:04.084Z,81.70166
2023-05-15T11:49:13.796Z,83.013916
2023-05-15T11:50:22.529Z,82.70874
2023-05-15T11:51:31.191Z,81.561279
2023-05-15T11:52:41.902Z,82.849121
2023-05-15T11:53:50.602Z,83.80127
2023-05-15T11:55:00.381Z,83.032227
2023-05-15T11:56:09.021Z,84.246826
2023-05-15T11:57:18.703Z,83.776855
2023-05-15T11:58:28.416Z,84.344482
2023-05-15T11:59:37.119Z,85.076904
2023-05-15T12:00:45.781Z,82.8125
2023-05-15T12:01:54.473Z,82.635498
2023-05-15T12:03:03.194Z,83.02002
2023-05-15T12:04:12.983Z,81.37207
2023-05-15T12:05:22.626Z,78.955078
2023-05-15T12:06:31.309Z,80.664062
2023-05-15T12:07:41.006Z,79.089355
2023-05-15T12:08:50.773Z,79.327393
2023-05-15T12:09:59.374Z,80.438232
2023-05-15T12:11:09.185Z,81.585693
2023-05-15T12:12:17.884Z,82.128906
2023-05-15T12:13:27.581Z,82.836914
2023-05-15T12:14:37.228Z,85.095215
2023-05-15T12:15:44.918Z,86.450195
2023-05-15T12:16:54.626Z,88.916016
2023-05-15T12:18:04.303Z,87.524414
2023-05-15T12:19:13.021Z,89.587402
2023-05-15T12:20:21.664Z,90.74707
2023-05-15T12:21:31.286Z,89.978027
2023-05-15T12:22:41.959Z,90.74707
2023-05-15T12:23:59.820Z,90.686035
2023-05-15T12:25:01.281Z,90.527344
2023-05-15T12:26:10.955Z,91.436768
2023-05-15T12:27:19.648Z,90.466309
2023-05-15T12:28:28.358Z,91.278076
2023-05-15T12:29:37.041Z,91.583252
2023-05-15T12:30:46.743Z,92.596436
2023-05-15T12:31:55.440Z,92.39502
2023-05-15T12:33:04.146Z,91.986084
2023-05-15T12:34:12.791Z,92.840576
2023-05-15T12:35:22.482Z,93.206787
2023-05-15T12:36:32.198Z,92.797852
2023-05-15T12:37:41.886Z,91.827393
2023-05-15T12:38:50.696Z,92.492676
2023-05-15T12:40:00.235Z,92.29126
2023-05-15T12:41:09.886Z,90.307617
2023-05-15T12:42:19.565Z,91.424561
2023-05-15T12:43:29.258Z,91.888428
2023-05-15T12:44:38.931Z,90.203857
2023-05-15T12:45:47.618Z,90.509033
2023-05-15T12:46:58.331Z,89.593506
2023-05-15T12:48:07.124Z,90.83252
2023-05-15T12:49:16.703Z,89.4104
2023-05-15T12:50:26.668Z,89.813232
2023-05-15T12:51:35.171Z,90.020752
2023-05-15T12:52:44.827Z,89.770508
2023-05-15T12:53:53.546Z,89.611816
2023-05-15T12:55:01.223Z,89.147949
2023-05-15T12:56:10.964Z,89.758301
2023-05-15T12:57:19.645Z,88.989258
2023-05-15T12:58:29.309Z,89.801025
2023-05-15T12:59:38.959Z,89.190674
2023-05-15T13:00:47.681Z,89.84375
2023-05-15T13:01:57.544Z,89.068604
2023-05-15T13:03:06.108Z,89.880371
2023-05-15T13:04:14.729Z,90.246582
2023-05-15T13:05:24.396Z,89.593506
2023-05-15T13:06:45.422Z,89.39209
2023-05-15T13:07:44.765Z,88.378906
2023-05-15T13:08:54.393Z,88.214111
2023-05-15T13:10:03.145Z,87.548828
2023-05-15T13:11:12.799Z,89.331055
2023-05-15T13:12:21.500Z,88.726807
2023-05-15T13:13:29.193Z,88.116455